createdAt,value
2019-05-10T00:01:05.211Z,99865.91
2019-05-10T00:03:52.184Z,99873.28
2019-05-10T00:06:39.316Z,99865.92
2019-05-10T00:09:08.015Z,99871.53
2019-05-10T00:11:49.007Z,99874.98
2019-05-10T00:14:30.859Z,99869.84
2019-05-10T00:17:02.038Z,99871.13
2019-05-10T00:19:31.603Z,99881.52
2019-05-10T00:22:01.256Z,99876.75
2019-05-10T00:24:30.743Z,99875.91
2019-05-10T00:27:00.226Z,99877.19
2019-05-10T00:29:29.721Z,99878.91
2019-05-10T00:31:59.235Z,99876.33
2019-05-10T00:34:28.739Z,99878.04
2019-05-10T00:36:58.229Z,99874.59
2019-05-10T00:39:27.794Z,99877.64
2019-05-10T00:41:57.353Z,99872.01
2019-05-10T00:44:26.834Z,99871.58
2019-05-10T00:46:56.359Z,99872.89
2019-05-10T00:49:25.991Z,99869.84
2019-05-10T00:51:55.486Z,99868.53
2019-05-10T00:54:25.000Z,99884.53
2019-05-10T00:56:54.582Z,99875.91
2019-05-10T00:59:24.161Z,99884.13
2019-05-10T01:01:53.644Z,99881.08
2019-05-10T01:04:23.152Z,99884.12
2019-05-10T01:06:56.218Z,99885.41
2019-05-10T01:09:23.931Z,99891.45
2019-05-10T01:11:53.426Z,99890.17
2019-05-10T01:14:23.033Z,99892.75
2019-05-10T01:16:52.585Z,99892.75
2019-05-10T01:19:22.143Z,99890.62
2019-05-10T01:21:51.646Z,99894.07
2019-05-10T01:24:21.133Z,99894.08
2019-05-10T01:26:50.658Z,99897.11
2019-05-10T01:29:20.203Z,99901.00
2019-05-10T01:31:49.712Z,99898.39
2019-05-10T01:34:19.192Z,99904.89
2019-05-10T01:36:48.703Z,99909.66
2019-05-10T01:39:18.232Z,99909.22
2019-05-10T01:41:47.768Z,99913.98
2019-05-10T01:44:17.257Z,99914.41
2019-05-10T01:46:46.766Z,99916.14
2019-05-10T01:49:16.279Z,99919.19
2019-05-10T01:51:45.789Z,99916.58
2019-05-10T01:54:15.270Z,99920.47
2019-05-10T01:56:44.780Z,99919.17
2019-05-10T01:59:14.275Z,99922.22
2019-05-10T02:01:43.836Z,99924.39
2019-05-10T02:04:17.237Z,99933.91
2019-05-10T02:06:44.634Z,99922.66
2019-05-10T02:09:14.197Z,99926.97
2019-05-10T02:11:43.690Z,99932.17
2019-05-10T02:14:13.199Z,99922.63
2019-05-10T02:16:42.997Z,99933.05
2019-05-10T02:19:12.488Z,99929.98
2019-05-10T02:21:42.021Z,99926.97
2019-05-10T02:24:11.527Z,99926.96
2019-05-10T02:26:41.016Z,99929.12
2019-05-10T02:29:10.541Z,99929.12
2019-05-10T02:31:40.124Z,99924.78
2019-05-10T02:34:09.646Z,99927.38
2019-05-10T02:36:39.163Z,99932.58
2019-05-10T02:39:09.758Z,99938.21
2019-05-10T02:41:39.256Z,99938.20
2019-05-10T02:44:08.770Z,99938.64
2019-05-10T02:46:38.332Z,99936.03
2019-05-10T02:49:07.887Z,99938.60
2019-05-10T02:51:37.399Z,99936.89
2019-05-10T02:54:06.975Z,99939.91
2019-05-10T02:56:38.719Z,99936.00
2019-05-10T02:59:09.705Z,99932.13
2019-05-10T03:01:46.014Z,99932.53
2019-05-10T03:04:15.852Z,99944.24
2019-05-10T03:06:45.500Z,99945.13
2019-05-10T03:09:14.966Z,99947.27
2019-05-10T03:11:50.107Z,99942.08
2019-05-10T03:14:20.375Z,99951.62
2019-05-10T03:16:52.099Z,99953.31
2019-05-10T03:19:22.429Z,99959.00
2019-05-10T03:22:02.085Z,99957.23
2019-05-10T03:24:31.581Z,99961.58
2019-05-10T03:27:01.069Z,99959.40
2019-05-10T03:29:30.673Z,99958.09
2019-05-10T03:32:00.271Z,99967.23
2019-05-10T03:34:29.749Z,99973.31
2019-05-10T03:36:59.312Z,99973.31
2019-05-10T03:39:28.964Z,99981.07
2019-05-10T03:41:58.494Z,99989.23
2019-05-10T03:44:28.009Z,99990.85
2019-05-10T03:46:57.520Z,99984.44
2019-05-10T03:49:27.033Z,99986.13
2019-05-10T03:51:56.519Z,99984.27
2019-05-10T03:54:26.028Z,99984.69
2019-05-10T03:57:12.244Z,99986.00
2019-05-10T03:59:26.726Z,99990.67
2019-05-10T04:01:56.360Z,99985.91
2019-05-10T04:04:25.916Z,99989.77
2019-05-10T04:06:55.434Z,99988.10
2019-05-10T04:09:25.076Z,99997.55
2019-05-10T04:11:54.539Z,100000.11
2019-05-10T04:14:24.039Z,99996.23
2019-05-10T04:16:53.539Z,99997.47
2019-05-10T04:19:23.022Z,100007.08
2019-05-10T04:21:52.507Z,100009.63
2019-05-10T04:24:22.270Z,100012.24
2019-05-10T04:26:51.763Z,100016.16
2019-05-10T04:29:21.446Z,100017.04
2019-05-10T04:31:51.021Z,100017.52
2019-05-10T04:34:20.595Z,100018.30
2019-05-10T04:36:50.161Z,100024.80
2019-05-10T04:39:19.698Z,100024.83
2019-05-10T04:41:49.191Z,100030.91
2019-05-10T04:44:18.755Z,100032.99
2019-05-10T04:46:48.234Z,100037.80
2019-05-10T04:49:17.753Z,100034.81
2019-05-10T04:51:47.346Z,100041.63
2019-05-10T04:54:16.845Z,100052.44
2019-05-10T04:56:46.385Z,100046.47
2019-05-10T04:59:15.854Z,100047.25
2019-05-10T05:01:45.370Z,100046.80
2019-05-10T05:04:15.008Z,100056.84
2019-05-10T05:06:44.663Z,100059.36
2019-05-10T05:09:14.202Z,100055.01
2019-05-10T05:11:43.654Z,100058.92
2019-05-10T05:14:13.212Z,100063.66
2019-05-10T05:16:42.704Z,100060.66
2019-05-10T05:19:12.211Z,100061.06
2019-05-10T05:21:41.761Z,100067.09
2019-05-10T05:24:11.308Z,100067.19
2019-05-10T05:26:40.812Z,100068.89
2019-05-10T05:29:10.300Z,100069.33
2019-05-10T05:31:39.802Z,100073.78
2019-05-10T05:34:09.278Z,100074.72
2019-05-10T05:36:38.801Z,100077.39
2019-05-10T05:39:09.397Z,100075.53
2019-05-10T05:41:47.566Z,100082.05
2019-05-10T05:44:10.168Z,100089.52
2019-05-10T05:46:39.694Z,100091.27
2019-05-10T05:49:09.164Z,100097.28
2019-05-10T05:51:38.646Z,100101.20
2019-05-10T05:54:08.298Z,100103.41
2019-05-10T05:56:37.830Z,100104.70
2019-05-10T05:59:08.971Z,100099.80
2019-05-10T06:01:38.699Z,100109.88
2019-05-10T06:04:12.481Z,100112.16
2019-05-10T06:06:39.391Z,100113.91
2019-05-10T06:09:09.065Z,100117.78
2019-05-10T06:11:38.566Z,100120.42
2019-05-10T06:14:10.649Z,100122.14
2019-05-10T06:16:39.343Z,100122.92
2019-05-10T06:19:08.852Z,100128.13
2019-05-10T06:21:38.407Z,100125.59
2019-05-10T06:24:13.549Z,100132.54
2019-05-10T06:26:39.130Z,100139.48
2019-05-10T06:29:16.453Z,100138.56
2019-05-10T06:31:39.858Z,100142.93
2019-05-10T06:34:09.357Z,100152.07
2019-05-10T06:36:38.931Z,100152.84
2019-05-10T06:39:09.354Z,100149.26
2019-05-10T06:41:38.848Z,100156.64
2019-05-10T06:44:08.465Z,100150.99
2019-05-10T06:46:38.033Z,100156.64
2019-05-10T06:49:09.804Z,100160.02
2019-05-10T06:51:42.715Z,100162.70
2019-05-10T06:54:10.035Z,100166.64
2019-05-10T06:56:39.540Z,100169.14
2019-05-10T06:59:13.515Z,100172.66
2019-05-10T07:01:45.979Z,100178.75
2019-05-10T07:04:11.472Z,100185.70
2019-05-10T07:06:40.994Z,100183.16
2019-05-10T07:09:10.638Z,100189.23
2019-05-10T07:11:40.119Z,100192.22
2019-05-10T07:14:09.613Z,100190.03
2019-05-10T07:16:39.121Z,100196.03
2019-05-10T07:19:08.687Z,100212.12
2019-05-10T07:21:38.947Z,100215.51
2019-05-10T07:24:09.498Z,100215.59
2019-05-10T07:26:38.977Z,100224.56
2019-05-10T07:29:08.567Z,100219.44
2019-05-10T07:31:38.078Z,100220.73
2019-05-10T07:34:09.853Z,100226.33
2019-05-10T07:36:38.817Z,100231.60
2019-05-10T07:39:10.611Z,100236.92
2019-05-10T07:41:39.758Z,100243.34
2019-05-10T07:44:10.630Z,100242.42
2019-05-10T07:46:47.301Z,100244.53
2019-05-10T07:49:11.379Z,100250.21
2019-05-10T07:51:40.862Z,100250.67
2019-05-10T07:54:10.363Z,100253.67
2019-05-10T07:56:45.737Z,100256.20
2019-05-10T07:59:16.275Z,100263.94
2019-05-10T08:01:42.295Z,100264.81
2019-05-10T08:04:13.121Z,100273.86
2019-05-10T08:06:47.423Z,100275.69
2019-05-10T08:09:14.087Z,100278.78
2019-05-10T08:11:43.585Z,100284.86
2019-05-10T08:14:13.069Z,100286.35
2019-05-10T08:16:42.723Z,100282.86
2019-05-10T08:19:12.232Z,100283.80
2019-05-10T08:21:42.008Z,100286.09
2019-05-10T08:24:15.915Z,100283.03
2019-05-10T08:26:42.787Z,100294.47
2019-05-10T08:29:16.851Z,100292.77
2019-05-10T08:31:52.263Z,100299.30
2019-05-10T08:34:16.302Z,100304.00
2019-05-10T08:36:47.834Z,100306.16
2019-05-10T08:39:17.510Z,100315.80
2019-05-10T08:42:03.700Z,100319.20
2019-05-10T08:44:21.041Z,100319.08
2019-05-10T08:46:49.540Z,100317.77
2019-05-10T08:49:22.022Z,100322.11
2019-05-10T08:51:52.266Z,100325.45
2019-05-10T08:54:22.486Z,100324.78
2019-05-10T08:57:00.878Z,100327.75
2019-05-10T08:59:26.679Z,100330.95
2019-05-10T09:01:55.368Z,100333.57
2019-05-10T09:04:24.868Z,100332.83
2019-05-10T09:06:59.628Z,100341.47
2019-05-10T09:09:25.710Z,100345.37
2019-05-10T09:11:57.778Z,100348.86
2019-05-10T09:14:26.495Z,100348.05
2019-05-10T09:17:01.827Z,100355.84
2019-05-10T09:19:35.990Z,100358.08
2019-05-10T09:21:58.597Z,100358.60
2019-05-10T09:24:28.094Z,100362.94
2019-05-10T09:26:57.609Z,100366.83
2019-05-10T09:29:27.451Z,100365.11
2019-05-10T09:32:01.127Z,100378.14
2019-05-10T09:34:29.647Z,100379.87
2019-05-10T09:36:59.126Z,100385.52
2019-05-10T09:39:28.700Z,100388.09
2019-05-10T09:41:58.227Z,100388.51
2019-05-10T09:44:29.301Z,100392.01
2019-05-10T09:46:58.806Z,100394.23
2019-05-10T09:49:28.297Z,100405.08
2019-05-10T09:51:57.829Z,100407.55
2019-05-10T09:54:29.654Z,100409.73
2019-05-10T09:56:58.592Z,100406.66
2019-05-10T09:59:28.168Z,100407.62
2019-05-10T10:01:57.729Z,100412.02
2019-05-10T10:04:28.131Z,100420.65
2019-05-10T10:06:58.144Z,100416.33
2019-05-10T10:09:33.417Z,100419.35
2019-05-10T10:12:02.825Z,100419.38
2019-05-10T10:14:37.752Z,100421.09
2019-05-10T10:17:03.210Z,100426.82
2019-05-10T10:19:32.697Z,100432.44
2019-05-10T10:22:05.455Z,100436.38
2019-05-10T10:24:33.419Z,100437.67
2019-05-10T10:27:02.947Z,100444.19
2019-05-10T10:29:34.029Z,100434.17
2019-05-10T10:32:03.749Z,100443.63
2019-05-10T10:34:38.652Z,100438.38
2019-05-10T10:37:04.576Z,100444.03
2019-05-10T10:39:34.155Z,100443.25
2019-05-10T10:42:08.727Z,100440.70
2019-05-10T10:44:37.066Z,100441.59
2019-05-10T10:47:08.285Z,100442.49
2019-05-10T10:49:37.876Z,100439.03
2019-05-10T10:52:11.122Z,100436.31
2019-05-10T10:54:39.945Z,100447.17
2019-05-10T10:57:09.630Z,100440.66
2019-05-10T10:59:39.174Z,100435.41
2019-05-10T11:04:46.672Z,100436.06
2019-05-10T11:07:11.368Z,100434.76
2019-05-10T11:09:41.064Z,100442.69
2019-05-10T11:12:14.756Z,100439.59
2019-05-10T11:14:45.337Z,100432.12
2019-05-10T11:17:13.226Z,100436.98
2019-05-10T11:19:42.794Z,100436.71
2019-05-10T11:22:12.345Z,100433.37
2019-05-10T11:24:41.969Z,100439.02
2019-05-10T11:27:17.097Z,100431.91
2019-05-10T11:29:44.259Z,100440.45
2019-05-10T11:32:16.653Z,100442.87
2019-05-10T11:34:45.053Z,100442.34
2019-05-10T11:37:16.155Z,100447.58
2019-05-10T11:39:47.020Z,100447.42
2019-05-10T11:42:16.755Z,100449.55
2019-05-10T11:44:50.282Z,100451.38
2019-05-10T11:47:25.938Z,100461.58
2019-05-10T11:49:50.879Z,100461.56
2019-05-10T11:52:21.756Z,100465.05
2019-05-10T11:54:51.706Z,100465.09
2019-05-10T11:57:21.913Z,100464.59
2019-05-10T11:59:51.965Z,100465.06
2019-05-10T12:02:37.388Z,100459.21
2019-05-10T12:04:53.064Z,100451.06
2019-05-10T12:07:24.630Z,100457.02
2019-05-10T12:10:03.138Z,100449.74
2019-05-10T12:12:45.254Z,100447.30
2019-05-10T12:14:56.287Z,100439.75
2019-05-10T12:17:25.850Z,100440.19
2019-05-10T12:19:56.559Z,100438.81
2019-05-10T12:22:32.166Z,100435.51
2019-05-10T12:26:27.086Z,100444.26
2019-05-10T12:27:41.828Z,100442.03
2019-05-10T12:30:03.099Z,100448.66
2019-05-10T12:32:33.479Z,100452.05
2019-05-10T12:35:02.319Z,100450.08
2019-05-10T12:37:31.852Z,100439.25
2019-05-10T12:40:09.600Z,100443.70
2019-05-10T12:42:32.564Z,100443.47
2019-05-10T12:45:02.150Z,100444.80
2019-05-10T12:47:33.809Z,100437.97
2019-05-10T12:50:03.715Z,100442.05
2019-05-10T12:52:33.338Z,100440.09
2019-05-10T12:55:02.824Z,100438.68
2019-05-10T12:57:32.304Z,100438.09
2019-05-10T13:00:06.773Z,100443.11
2019-05-10T13:02:33.024Z,100444.84
2019-05-10T13:05:02.511Z,100438.48
2019-05-10T13:07:31.988Z,100432.11
2019-05-10T13:10:05.987Z,100437.31
2019-05-10T13:12:37.011Z,100435.12
2019-05-10T13:15:07.908Z,100425.97
2019-05-10T13:17:37.473Z,100427.70
2019-05-10T13:20:09.066Z,100425.71
2019-05-10T13:22:39.523Z,100435.25
2019-05-10T13:25:09.842Z,100439.55
2019-05-10T13:27:39.426Z,100443.56
2019-05-10T13:30:09.796Z,100437.70
2019-05-10T13:32:39.367Z,100440.67
2019-05-10T13:35:09.267Z,100435.47
2019-05-10T13:37:38.859Z,100440.13
2019-05-10T13:40:08.866Z,100436.23
2019-05-10T13:42:43.080Z,100433.96
2019-05-10T13:45:09.928Z,100431.69
2019-05-10T13:47:39.439Z,100434.57
2019-05-10T13:50:09.161Z,100441.25
2019-05-10T13:52:41.195Z,100441.02
2019-05-10T13:55:10.081Z,100447.85
2019-05-10T13:57:39.656Z,100441.20
2019-05-10T14:00:10.052Z,100442.28
2019-05-10T14:02:39.594Z,100442.91
2019-05-10T14:05:11.760Z,100448.73
2019-05-10T14:07:49.719Z,100444.53
2019-05-10T14:10:12.228Z,100441.53
2019-05-10T14:12:41.783Z,100439.19
2019-05-10T14:15:13.761Z,100441.92
2019-05-10T14:17:42.916Z,100440.47
2019-05-10T14:20:25.060Z,100436.48
2019-05-10T14:22:48.679Z,100437.19
2019-05-10T14:25:16.548Z,100443.15
2019-05-10T14:27:46.076Z,100434.11
2019-05-10T14:30:16.236Z,100434.54
2019-05-10T14:32:45.875Z,100442.11
2019-05-10T14:35:16.333Z,100441.72
2019-05-10T14:37:48.065Z,100438.95
2019-05-10T14:40:27.812Z,100435.41
2019-05-10T14:42:49.214Z,100436.30
2019-05-10T14:45:18.798Z,100432.66
2019-05-10T14:47:50.472Z,100436.02
2019-05-10T14:50:26.054Z,100447.02
2019-05-10T14:52:51.172Z,100451.67
2019-05-10T14:55:20.761Z,100443.13
2019-05-10T14:57:50.353Z,100438.48
2019-05-10T15:00:21.464Z,100436.83
2019-05-10T15:02:50.995Z,100445.40
2019-05-10T15:05:20.483Z,100438.73
2019-05-10T15:07:51.243Z,100443.81
2019-05-10T15:10:21.059Z,100446.53
2019-05-10T15:12:50.530Z,100440.67
2019-05-10T15:15:20.255Z,100442.02
2019-05-10T15:17:54.957Z,100445.38
2019-05-10T15:20:21.189Z,100442.87
2019-05-10T15:22:50.767Z,100447.73
2019-05-10T15:25:20.688Z,100443.52
2019-05-10T15:27:54.861Z,100438.58
2019-05-10T15:30:21.933Z,100439.41
2019-05-10T15:32:51.474Z,100433.59
2019-05-10T15:35:20.968Z,100433.48
2019-05-10T15:37:50.495Z,100430.41
2019-05-10T15:40:20.333Z,100427.63
2019-05-10T15:42:49.846Z,100424.45
2019-05-10T15:45:19.768Z,100424.23
2019-05-10T15:47:51.676Z,100433.54
2019-05-10T15:50:20.734Z,100428.48
2019-05-10T15:52:50.233Z,100425.91
2019-05-10T15:55:26.796Z,100436.81
2019-05-10T15:57:51.865Z,100429.88
2019-05-10T16:00:25.368Z,100427.13
2019-05-10T16:02:53.681Z,100430.36
2019-05-10T16:05:29.647Z,100427.48
2019-05-10T16:07:54.431Z,100430.75
2019-05-10T16:10:28.544Z,100428.13
2019-05-10T16:12:55.212Z,100427.95
2019-05-10T16:15:24.754Z,100430.28
2019-05-10T16:17:59.740Z,100423.95
2019-05-10T16:20:25.490Z,100432.28
2019-05-10T16:22:55.118Z,100441.00
2019-05-10T16:25:24.623Z,100440.44
2019-05-10T16:27:54.203Z,100441.13
2019-05-10T16:30:23.827Z,100451.50
2019-05-10T16:32:53.418Z,100467.73
2019-05-10T16:35:23.001Z,100467.28
2019-05-10T16:37:52.509Z,100464.06
2019-05-10T16:40:22.085Z,100464.08
2019-05-10T16:42:51.589Z,100453.91
2019-05-10T16:45:21.117Z,100454.75
2019-05-10T16:47:50.598Z,100448.05
2019-05-10T16:50:20.401Z,100443.62
2019-05-10T16:52:50.095Z,100436.94
2019-05-10T16:55:19.655Z,100441.43
2019-05-10T16:57:49.260Z,100443.16
2019-05-10T17:00:19.367Z,100449.80
2019-05-10T17:02:48.871Z,100454.77
2019-05-10T17:05:18.540Z,100452.66
2019-05-10T17:07:48.057Z,100457.69
2019-05-10T17:10:17.691Z,100461.11
2019-05-10T17:12:47.190Z,100454.32
2019-05-10T17:15:16.850Z,100449.98
2019-05-10T17:17:46.354Z,100449.11
2019-05-10T17:20:16.102Z,100450.45
2019-05-10T17:22:45.620Z,100440.03
2019-05-10T17:25:15.205Z,100442.69
2019-05-10T17:27:44.764Z,100441.84
2019-05-10T17:30:14.514Z,100439.14
2019-05-10T17:32:44.060Z,100437.47
2019-05-10T17:35:13.628Z,100434.98
2019-05-10T17:37:43.108Z,100441.48
2019-05-10T17:40:12.892Z,100441.45
2019-05-10T17:42:43.260Z,100456.32
2019-05-10T17:45:13.779Z,100455.96
2019-05-10T17:47:43.324Z,100461.15
2019-05-10T17:50:13.161Z,100459.81
2019-05-10T17:52:42.655Z,100466.34
2019-05-10T17:55:16.780Z,100475.93
2019-05-10T17:57:48.607Z,100477.67
2019-05-10T18:00:15.732Z,100478.16
2019-05-10T18:02:45.253Z,100473.37
2019-05-10T18:05:15.056Z,100475.47
2019-05-10T18:07:44.552Z,100472.39
2019-05-10T18:10:15.411Z,100468.06
2019-05-10T18:12:44.979Z,100468.48
2019-05-10T18:15:14.652Z,100479.73
2019-05-10T18:17:44.166Z,100485.33
2019-05-10T18:20:13.931Z,100493.97
2019-05-10T18:22:45.346Z,100487.39
2019-05-10T18:25:20.250Z,100496.83
2019-05-10T18:27:46.048Z,100505.84
2019-05-10T18:30:15.875Z,100498.42
2019-05-10T18:32:45.380Z,100505.01
2019-05-10T18:35:19.991Z,100507.22
2019-05-10T18:37:53.710Z,100512.27
2019-05-10T18:40:25.282Z,100513.47
2019-05-10T18:42:52.211Z,100511.36
2019-05-10T18:45:23.275Z,100505.23
2019-05-10T18:47:53.133Z,100492.69
2019-05-10T18:50:22.669Z,100497.38
2019-05-10T18:52:52.193Z,100501.56
2019-05-10T18:55:21.727Z,100495.30
2019-05-10T18:57:52.578Z,100501.30
2019-05-10T19:00:23.606Z,100497.22
2019-05-10T19:02:55.622Z,100493.28
2019-05-10T19:05:31.659Z,100488.63
2019-05-10T19:08:04.759Z,100496.97
2019-05-10T19:10:27.873Z,100490.47
2019-05-10T19:13:01.228Z,100492.59
2019-05-10T19:15:28.772Z,100488.16
2019-05-10T19:17:58.336Z,100485.09
2019-05-10T19:20:27.944Z,100491.63
2019-05-10T19:22:57.583Z,100503.35
2019-05-10T19:25:29.129Z,100501.19
2019-05-10T19:27:58.709Z,100492.92
2019-05-10T19:30:28.204Z,100497.80
2019-05-10T19:32:58.074Z,100503.78
2019-05-10T19:35:29.867Z,100500.69
2019-05-10T19:37:59.446Z,100502.38
2019-05-10T19:40:28.973Z,100502.29
2019-05-10T19:42:58.533Z,100503.04
2019-05-10T19:45:31.082Z,100501.70
2019-05-10T19:47:59.410Z,100512.44
2019-05-10T19:50:33.182Z,100523.26
2019-05-10T19:53:03.740Z,100531.00
2019-05-10T19:55:31.470Z,100536.09
2019-05-10T19:58:00.973Z,100528.70
2019-05-10T20:00:30.500Z,100530.44
2019-05-10T20:03:00.040Z,100541.28
2019-05-10T20:05:29.813Z,100543.02
2019-05-10T20:07:59.461Z,100534.31
2019-05-10T20:10:31.017Z,100533.32
2019-05-10T20:13:00.487Z,100539.80
2019-05-10T20:15:31.022Z,100539.28
2019-05-10T20:18:00.643Z,100518.47
2019-05-10T20:20:30.356Z,100510.64
2019-05-10T20:22:59.938Z,100507.19
2019-05-10T20:25:29.628Z,100501.98
2019-05-10T20:27:59.737Z,100511.30
2019-05-10T20:30:29.173Z,100525.00
2019-05-10T20:32:58.677Z,100540.00
2019-05-10T20:35:28.331Z,100559.69
2019-05-10T20:38:01.958Z,100556.98
2019-05-10T20:40:29.292Z,100552.70
2019-05-10T20:42:58.782Z,100553.95
2019-05-10T20:45:28.480Z,100534.92
2019-05-10T20:47:57.936Z,100533.58
2019-05-10T20:50:27.504Z,100536.61
2019-05-10T20:52:57.175Z,100528.06
2019-05-10T20:55:26.739Z,100533.69
2019-05-10T20:57:56.230Z,100520.81
2019-05-10T21:00:28.418Z,100523.52
2019-05-10T21:02:58.033Z,100513.14
2019-05-10T21:05:27.637Z,100518.70
2019-05-10T21:07:57.243Z,100519.53
2019-05-10T21:10:26.726Z,100521.73
2019-05-10T21:12:56.227Z,100516.55
2019-05-10T21:15:25.739Z,100506.55
2019-05-10T21:17:55.311Z,100510.45
2019-05-10T21:20:24.839Z,100516.54
2019-05-10T21:22:54.322Z,100509.16
2019-05-10T21:25:23.844Z,100510.50
2019-05-10T21:27:53.347Z,100501.55
2019-05-10T21:30:22.905Z,100505.10
2019-05-10T21:32:52.424Z,100507.70
2019-05-10T21:35:21.940Z,100509.34
2019-05-10T21:37:51.443Z,100504.97
2019-05-10T21:40:21.125Z,100494.97
2019-05-10T21:42:50.626Z,100486.77
2019-05-10T21:45:20.206Z,100470.38
2019-05-10T21:47:51.865Z,100474.61
2019-05-10T21:50:20.987Z,100475.03
2019-05-10T21:52:50.493Z,100478.44
2019-05-10T21:55:20.098Z,100466.72
2019-05-10T21:57:49.685Z,100472.30
2019-05-10T22:00:21.058Z,100472.82
2019-05-10T22:02:50.712Z,100470.61
2019-05-10T22:05:20.215Z,100462.77
2019-05-10T22:07:49.784Z,100459.70
2019-05-10T22:10:20.686Z,100457.98
2019-05-10T22:12:50.186Z,100468.78
2019-05-10T22:15:19.801Z,100471.80
2019-05-10T22:17:49.316Z,100465.70
2019-05-10T22:20:18.872Z,100454.91
2019-05-10T22:22:48.455Z,100460.14
2019-05-10T22:25:18.024Z,100460.14
2019-05-10T22:27:47.521Z,100454.09
2019-05-10T22:30:17.321Z,100447.17
2019-05-10T22:32:46.873Z,100458.50
2019-05-10T22:35:16.515Z,100461.10
2019-05-10T22:37:46.137Z,100458.94
2019-05-10T22:40:15.941Z,100465.42
2019-05-10T22:42:45.441Z,100443.36
2019-05-10T22:45:15.057Z,100447.27
2019-05-10T22:47:44.695Z,100442.12
2019-05-10T22:50:14.324Z,100446.05
2019-05-10T22:52:43.914Z,100444.72
2019-05-10T22:55:13.605Z,100439.96
2019-05-10T22:57:43.142Z,100437.80
2019-05-10T23:00:12.934Z,100440.78
2019-05-10T23:02:42.445Z,100436.49
2019-05-10T23:05:12.030Z,100415.34
2019-05-10T23:07:41.516Z,100418.81
2019-05-10T23:10:11.465Z,100417.95
2019-05-10T23:12:40.969Z,100418.82
2019-05-10T23:15:10.827Z,100419.30
2019-05-10T23:17:40.352Z,100410.64
2019-05-10T23:20:10.458Z,100417.17
2019-05-10T23:22:40.299Z,100418.03
2019-05-10T23:25:10.030Z,100415.45
2019-05-10T23:27:39.630Z,100414.58
2019-05-10T23:30:09.449Z,100409.39
2019-05-10T23:32:38.984Z,100404.72
2019-05-10T23:35:08.819Z,100402.55
2019-05-10T23:37:38.317Z,100393.00
2019-05-10T23:40:08.424Z,100401.22
2019-05-10T23:42:37.925Z,100404.63
2019-05-10T23:45:08.065Z,100406.87
2019-05-10T23:47:37.686Z,100404.84
2019-05-10T23:50:07.522Z,100408.77
2019-05-10T23:52:37.021Z,100403.53
2019-05-10T23:55:07.672Z,100403.94
2019-05-10T23:57:37.188Z,100393.67
